createdAt,value
2019-04-27T00:01:55.143Z,74.11
2019-04-27T00:04:55.825Z,74.98
2019-04-27T00:07:44.381Z,75.25
2019-04-27T00:10:20.416Z,75.25
2019-04-27T00:12:50.682Z,75.52
2019-04-27T00:15:34.383Z,75.04
2019-04-27T00:18:29.181Z,75.73
2019-04-27T00:21:08.801Z,75.73
2019-04-27T00:23:38.948Z,75.58
2019-04-27T00:26:08.584Z,75.88
2019-04-27T00:28:38.197Z,75.51
2019-04-27T00:31:08.185Z,75.51
2019-04-27T00:33:38.139Z,76.00
2019-04-27T00:36:15.411Z,75.96
2019-04-27T00:39:05.261Z,76.47
2019-04-27T00:41:35.369Z,76.09
2019-04-27T00:44:06.098Z,76.09
2019-04-27T00:46:35.967Z,76.19
2019-04-27T00:49:05.540Z,75.75
2019-04-27T00:51:35.103Z,76.92
2019-04-27T00:54:04.766Z,76.57
2019-04-27T00:57:05.796Z,76.57
2019-04-27T01:00:00.772Z,76.46
2019-04-27T01:02:38.974Z,76.46
2019-04-27T01:05:15.359Z,76.70
2019-04-27T01:07:45.110Z,76.42
2019-04-27T01:10:14.751Z,77.11
2019-04-27T01:12:44.350Z,77.11
2019-04-27T01:15:14.183Z,77.65
2019-04-27T01:17:43.989Z,77.23
2019-04-27T01:20:15.363Z,77.23
2019-04-27T01:22:45.317Z,77.80
2019-04-27T01:25:15.054Z,77.74
2019-04-27T01:28:05.765Z,77.31
2019-04-27T01:30:43.457Z,77.31
2019-04-27T01:33:13.126Z,77.53
2019-04-27T01:35:42.980Z,77.41
2019-04-27T01:38:12.565Z,77.41
2019-04-27T01:40:42.182Z,77.10
2019-04-27T01:43:11.878Z,77.10
2019-04-27T01:45:41.438Z,77.36
2019-04-27T01:48:22.946Z,77.24
2019-04-27T01:50:44.121Z,77.56
2019-04-27T01:53:13.799Z,77.56
2019-04-27T01:55:43.603Z,78.09
2019-04-27T01:58:13.220Z,77.88
2019-04-27T02:01:00.957Z,77.88
2019-04-27T02:04:09.157Z,77.23
2019-04-27T02:06:39.400Z,77.77
2019-04-27T02:09:11.491Z,77.97
2019-04-27T02:11:41.159Z,77.32
2019-04-27T02:14:10.849Z,77.32
2019-04-27T02:16:40.407Z,78.36
2019-04-27T02:19:13.039Z,78.29
2019-04-27T02:21:44.342Z,78.29
2019-04-27T02:24:15.027Z,78.08
2019-04-27T02:26:46.584Z,78.03
2019-04-27T02:29:29.438Z,78.03
2019-04-27T02:32:17.118Z,78.85
2019-04-27T02:35:00.112Z,78.89
2019-04-27T02:37:30.436Z,78.15
2019-04-27T02:40:00.917Z,78.15
2019-04-27T02:42:42.281Z,78.89
2019-04-27T02:45:12.084Z,79.06
2019-04-27T02:47:42.628Z,79.06
2019-04-27T02:50:12.323Z,78.51
2019-04-27T02:52:49.992Z,79.15
2019-04-27T02:55:19.795Z,79.66
2019-04-27T02:57:53.107Z,79.54
2019-04-27T03:00:22.827Z,79.86
2019-04-27T03:03:02.102Z,80.00
2019-04-27T03:05:30.587Z,80.00
2019-04-27T03:08:00.150Z,80.38
2019-04-27T03:10:32.024Z,79.97
2019-04-27T03:13:19.831Z,80.01
2019-04-27T03:16:11.401Z,80.01
2019-04-27T03:19:13.352Z,80.53
2019-04-27T03:21:50.406Z,80.46
2019-04-27T03:24:23.029Z,80.46
2019-04-27T03:27:00.473Z,80.47
2019-04-27T03:29:30.605Z,80.80
2019-04-27T03:32:02.348Z,81.33
2019-04-27T03:34:32.530Z,81.33
2019-04-27T03:37:04.224Z,81.33
2019-04-27T03:39:33.621Z,80.97
2019-04-27T03:42:03.435Z,81.67
2019-04-27T03:44:34.571Z,81.28
2019-04-27T03:47:05.919Z,80.70
2019-04-27T03:49:38.797Z,81.14
2019-04-27T03:52:21.579Z,79.98
2019-04-27T03:54:59.781Z,79.98
2019-04-27T03:57:43.097Z,81.53
2019-04-27T04:00:19.677Z,82.33
2019-04-27T04:02:50.233Z,82.33
2019-04-27T04:05:20.382Z,82.31
2019-04-27T04:07:50.517Z,82.31
2019-04-27T04:10:20.611Z,81.61
2019-04-27T04:13:01.448Z,81.81
2019-04-27T04:15:43.603Z,81.81
2019-04-27T04:18:13.378Z,81.16
2019-04-27T04:20:45.259Z,81.16
2019-04-27T04:23:14.646Z,81.55
2019-04-27T04:25:44.093Z,81.44
2019-04-27T04:28:13.599Z,80.88
2019-04-27T04:30:43.998Z,80.88
2019-04-27T04:33:13.353Z,81.37
2019-04-27T04:35:43.086Z,81.45
2019-04-27T04:38:13.618Z,81.43
2019-04-27T04:40:51.316Z,81.30
2019-04-27T04:43:43.455Z,81.30
2019-04-27T04:46:32.551Z,81.19
2019-04-27T04:49:02.125Z,81.19
2019-04-27T04:51:32.174Z,81.81
2019-04-27T04:54:03.615Z,81.28
2019-04-27T04:56:34.007Z,80.71
2019-04-27T04:59:04.083Z,81.11
2019-04-27T05:01:36.507Z,80.31
2019-04-27T05:04:06.055Z,80.31
2019-04-27T05:06:36.115Z,80.56
2019-04-27T05:09:06.966Z,80.38
2019-04-27T05:11:36.507Z,80.81
2019-04-27T05:14:06.348Z,80.42
2019-04-27T05:16:38.947Z,79.87
2019-04-27T05:19:11.216Z,79.87
2019-04-27T05:21:40.690Z,80.21
2019-04-27T05:24:10.445Z,80.41
2019-04-27T05:26:40.408Z,80.47
2019-04-27T05:29:10.970Z,80.49
2019-04-27T05:31:40.777Z,79.46
2019-04-27T05:34:11.715Z,79.46
2019-04-27T05:36:48.385Z,79.72
2019-04-27T05:39:13.447Z,79.73
2019-04-27T05:41:44.888Z,79.20
2019-04-27T05:44:45.765Z,79.20
2019-04-27T05:47:32.067Z,79.11
2019-04-27T05:50:09.127Z,79.11
2019-04-27T05:52:41.218Z,78.57
2019-04-27T05:55:11.532Z,79.13
2019-04-27T05:57:42.580Z,78.91
2019-04-27T06:00:15.176Z,79.00
2019-04-27T06:02:44.665Z,79.00
2019-04-27T06:05:16.217Z,79.00
2019-04-27T06:07:45.812Z,79.39
2019-04-27T06:10:17.435Z,78.12
2019-04-27T06:12:48.634Z,78.12
2019-04-27T06:15:19.782Z,78.26
2019-04-27T06:17:50.327Z,77.70
2019-04-27T06:20:19.948Z,77.70
2019-04-27T06:22:50.419Z,78.83
2019-04-27T06:25:21.501Z,78.34
2019-04-27T06:27:53.325Z,78.34
2019-04-27T06:30:22.788Z,78.16
2019-04-27T06:32:52.327Z,78.47
2019-04-27T06:35:21.640Z,78.47
2019-04-27T06:37:51.663Z,78.74
2019-04-27T06:40:23.307Z,78.63
2019-04-27T06:42:59.609Z,78.93
2019-04-27T06:45:31.564Z,79.34
2019-04-27T06:48:01.080Z,79.60
2019-04-27T06:50:30.808Z,79.76
2019-04-27T06:53:00.554Z,80.43
2019-04-27T06:55:35.097Z,80.43
2019-04-27T06:58:08.961Z,80.79
2019-04-27T07:00:40.905Z,81.24
2019-04-27T07:03:10.741Z,81.54
2019-04-27T07:05:41.388Z,82.00
2019-04-27T07:08:13.077Z,82.55
2019-04-27T07:10:43.795Z,83.08
2019-04-27T07:13:13.804Z,83.00
2019-04-27T07:15:49.870Z,83.33
2019-04-27T07:18:21.495Z,83.55
2019-04-27T07:20:51.524Z,83.65
2019-04-27T07:23:23.066Z,83.65
2019-04-27T07:25:55.021Z,83.89
2019-04-27T07:28:33.482Z,83.89
2019-04-27T07:31:09.718Z,84.10
2019-04-27T07:33:51.702Z,84.10
2019-04-27T07:36:23.140Z,84.71
2019-04-27T07:38:59.823Z,84.83
2019-04-27T07:41:30.247Z,84.83
2019-04-27T07:44:17.203Z,84.39
2019-04-27T07:47:09.711Z,84.39
2019-04-27T07:49:40.288Z,84.47
2019-04-27T07:52:15.361Z,84.47
2019-04-27T07:54:44.780Z,84.86
2019-04-27T07:57:14.165Z,84.79
2019-04-27T07:59:51.644Z,84.61
2019-04-27T08:02:23.870Z,85.10
2019-04-27T08:05:00.513Z,84.75
2019-04-27T08:07:39.574Z,84.42
2019-04-27T08:10:09.701Z,85.23
2019-04-27T08:12:40.412Z,85.23
2019-04-27T08:15:09.963Z,85.29
2019-04-27T08:17:40.592Z,85.29
2019-04-27T08:20:11.656Z,84.57
2019-04-27T08:22:43.052Z,84.74
2019-04-27T08:25:12.546Z,84.74
2019-04-27T08:27:52.008Z,84.87
2019-04-27T08:30:42.429Z,84.74
2019-04-27T08:33:14.193Z,84.69
2019-04-27T08:35:45.799Z,84.69
2019-04-27T08:38:19.025Z,84.80
2019-04-27T08:40:50.707Z,85.60
2019-04-27T08:43:24.951Z,85.98
2019-04-27T08:45:58.766Z,85.77
2019-04-27T08:48:34.689Z,85.77
2019-04-27T08:50:59.918Z,85.16
2019-04-27T08:53:31.185Z,85.16
2019-04-27T08:56:04.864Z,86.19
2019-04-27T08:58:39.350Z,86.61
2019-04-27T09:01:10.382Z,86.61
2019-04-27T09:03:41.367Z,85.82
2019-04-27T09:06:16.714Z,86.11
2019-04-27T09:08:56.099Z,86.24
2019-04-27T09:11:49.260Z,86.47
2019-04-27T09:14:26.842Z,86.25
2019-04-27T09:17:21.188Z,86.25
2019-04-27T09:19:59.140Z,87.03
2019-04-27T09:22:29.504Z,86.54
2019-04-27T09:24:59.512Z,86.54
2019-04-27T09:27:39.803Z,86.63
2019-04-27T09:30:10.334Z,86.52
2019-04-27T09:32:40.966Z,86.52
2019-04-27T09:35:13.275Z,86.41
2019-04-27T09:37:48.467Z,86.46
2019-04-27T09:40:21.258Z,86.46
2019-04-27T09:42:53.693Z,86.46
2019-04-27T09:45:26.907Z,86.46
2019-04-27T09:48:00.393Z,86.46
2019-04-27T09:50:31.180Z,86.46
2019-04-27T09:53:03.279Z,86.46
2019-04-27T09:55:32.931Z,85.55
2019-04-27T09:58:12.130Z,85.55
2019-04-27T10:00:43.521Z,86.25
2019-04-27T10:03:14.303Z,85.93
2019-04-27T10:05:45.885Z,85.12
2019-04-27T10:08:16.954Z,84.24
2019-04-27T10:10:48.020Z,84.60
2019-04-27T10:13:21.573Z,84.60
2019-04-27T10:15:51.050Z,84.17
2019-04-27T10:18:24.057Z,84.56
2019-04-27T10:20:59.658Z,85.05
2019-04-27T10:23:25.283Z,84.83
2019-04-27T10:25:56.663Z,84.35
2019-04-27T10:28:37.210Z,84.99
2019-04-27T10:31:15.634Z,84.99
2019-04-27T10:33:46.789Z,80.06
2019-04-27T10:36:19.461Z,80.06
2019-04-27T10:38:49.095Z,81.77
2019-04-27T10:41:18.757Z,81.77
2019-04-27T10:43:50.982Z,81.72
2019-04-27T10:46:21.384Z,81.72
2019-04-27T10:48:53.255Z,82.84
2019-04-27T10:51:26.079Z,81.75
2019-04-27T10:53:57.405Z,81.85
2019-04-27T10:56:27.336Z,81.85
2019-04-27T10:58:58.339Z,79.85
2019-04-27T11:01:30.101Z,82.69
2019-04-27T11:04:15.816Z,82.69
2019-04-27T11:06:56.393Z,80.44
2019-04-27T11:09:32.548Z,80.44
2019-04-27T11:12:04.256Z,80.92
2019-04-27T11:14:33.966Z,80.12
2019-04-27T11:17:06.270Z,80.12
2019-04-27T11:19:36.111Z,78.12
2019-04-27T11:22:09.333Z,80.85
2019-04-27T11:24:39.771Z,80.50
2019-04-27T11:27:09.418Z,80.50
2019-04-27T11:29:39.483Z,79.68
2019-04-27T11:32:15.783Z,80.94
2019-04-27T11:35:19.781Z,80.68
2019-04-27T11:37:49.933Z,81.36
2019-04-27T11:40:19.889Z,79.51
2019-04-27T11:42:49.254Z,79.51
2019-04-27T11:45:19.224Z,79.05
2019-04-27T11:47:55.321Z,79.09
2019-04-27T11:50:27.137Z,79.09
2019-04-27T11:52:56.787Z,78.30
2019-04-27T11:55:27.378Z,78.30
2019-04-27T11:57:57.177Z,79.39
2019-04-27T12:00:27.732Z,80.16
2019-04-27T12:03:04.379Z,78.66
2019-04-27T12:05:34.018Z,78.53
2019-04-27T12:08:06.704Z,78.55
2019-04-27T12:10:40.308Z,79.00
2019-04-27T12:13:12.122Z,79.00
2019-04-27T12:15:44.229Z,80.05
2019-04-27T12:18:14.407Z,79.51
2019-04-27T12:20:45.834Z,78.93
2019-04-27T12:23:16.526Z,78.12
2019-04-27T12:25:46.334Z,78.12
2019-04-27T12:28:27.676Z,78.35
2019-04-27T12:31:16.420Z,79.83
2019-04-27T12:33:50.594Z,79.83
2019-04-27T12:36:20.314Z,79.73
2019-04-27T12:38:50.100Z,79.49
2019-04-27T12:41:19.721Z,79.49
2019-04-27T12:43:56.034Z,78.91
2019-04-27T12:46:25.581Z,80.57
2019-04-27T12:48:57.071Z,77.96
2019-04-27T12:51:31.458Z,77.96
2019-04-27T12:54:32.224Z,78.68
2019-04-27T12:57:21.099Z,79.17
2019-04-27T13:00:03.593Z,77.04
2019-04-27T13:02:33.591Z,76.91
2019-04-27T13:05:08.156Z,77.64
2019-04-27T13:07:38.194Z,74.70
2019-04-27T13:10:11.141Z,73.20
2019-04-27T13:12:41.219Z,73.20
2019-04-27T13:15:11.100Z,73.90
2019-04-27T13:17:46.211Z,70.46
2019-04-27T13:20:17.644Z,70.62
2019-04-27T13:22:48.637Z,70.62
2019-04-27T13:25:19.315Z,70.07
2019-04-27T13:27:51.102Z,71.22
2019-04-27T13:30:23.049Z,71.22
2019-04-27T13:32:53.785Z,69.27
2019-04-27T13:35:25.931Z,71.98
2019-04-27T13:37:56.067Z,70.57
2019-04-27T13:40:26.581Z,70.79
2019-04-27T13:43:07.977Z,69.91
2019-04-27T13:46:08.809Z,69.91
2019-04-27T13:48:59.804Z,70.43
2019-04-27T13:51:42.772Z,70.38
2019-04-27T13:54:23.666Z,71.15
2019-04-27T13:56:48.499Z,70.67
2019-04-27T13:59:21.765Z,68.34
2019-04-27T14:01:54.000Z,69.23
2019-04-27T14:04:24.094Z,71.30
2019-04-27T14:06:53.826Z,67.98
2019-04-27T14:09:28.200Z,68.16
2019-04-27T14:12:06.916Z,67.51
2019-04-27T14:14:39.058Z,67.51
2019-04-27T14:17:19.162Z,65.62
2019-04-27T14:19:48.836Z,64.95
2019-04-27T14:22:18.840Z,63.49
2019-04-27T14:24:48.827Z,63.17
2019-04-27T14:27:21.545Z,62.72
2019-04-27T14:29:59.473Z,62.72
2019-04-27T14:32:31.545Z,65.69
2019-04-27T14:35:02.015Z,62.84
2019-04-27T14:37:33.825Z,65.54
2019-04-27T14:40:05.467Z,66.30
2019-04-27T14:42:37.893Z,67.84
2019-04-27T14:45:09.753Z,67.84
2019-04-27T14:47:43.425Z,67.46
2019-04-27T14:50:18.711Z,68.61
2019-04-27T14:52:53.659Z,68.35
2019-04-27T14:55:32.198Z,66.33
2019-04-27T14:58:04.344Z,64.01
2019-04-27T15:00:38.468Z,63.76
2019-04-27T15:03:08.978Z,63.76
2019-04-27T15:05:49.639Z,61.49
2019-04-27T15:08:20.724Z,61.62
2019-04-27T15:10:51.575Z,61.53
2019-04-27T15:13:23.188Z,60.14
2019-04-27T15:15:54.526Z,61.77
2019-04-27T15:18:29.706Z,58.38
2019-04-27T15:21:02.714Z,58.38
2019-04-27T15:23:31.914Z,56.00
2019-04-27T15:26:01.458Z,59.36
2019-04-27T15:28:36.233Z,59.36
2019-04-27T15:31:26.900Z,53.79
2019-04-27T15:34:27.495Z,56.29
2019-04-27T15:37:07.861Z,56.29
2019-04-27T15:39:57.695Z,54.12
2019-04-27T15:42:31.428Z,54.12
2019-04-27T15:45:03.539Z,53.91
2019-04-27T15:47:38.350Z,56.31
2019-04-27T15:50:09.211Z,56.31
2019-04-27T15:52:42.367Z,58.16
2019-04-27T15:55:31.571Z,59.35
2019-04-27T15:57:47.030Z,60.58
2019-04-27T16:00:24.256Z,60.58
2019-04-27T16:02:53.982Z,65.96
2019-04-27T16:05:28.595Z,66.39
2019-04-27T16:08:01.041Z,66.39
2019-04-27T16:10:32.715Z,68.53
2019-04-27T16:13:06.906Z,70.31
2019-04-27T16:15:35.278Z,70.31
2019-04-27T16:18:05.795Z,71.86
2019-04-27T16:20:35.713Z,70.27
2019-04-27T16:25:45.278Z,69.73
2019-04-27T16:28:09.705Z,69.18
2019-04-27T16:30:36.060Z,65.88
2019-04-27T16:33:08.698Z,68.13
2019-04-27T16:35:40.406Z,68.13
2019-04-27T16:38:26.745Z,69.03
2019-04-27T16:40:59.669Z,66.91
2019-04-27T16:43:32.672Z,68.74
2019-04-27T16:46:04.369Z,69.09
2019-04-27T16:48:34.519Z,68.32
2019-04-27T16:51:04.620Z,68.32
2019-04-27T16:53:38.198Z,68.97
2019-04-27T16:56:15.103Z,68.66
2019-04-27T16:58:39.869Z,68.78
2019-04-27T17:01:13.227Z,68.29
2019-04-27T17:03:42.898Z,68.29
2019-04-27T17:06:12.434Z,69.50
2019-04-27T17:08:44.219Z,68.41
2019-04-27T17:11:15.570Z,69.36
2019-04-27T17:13:51.983Z,69.98
2019-04-27T17:16:46.393Z,70.28
2019-04-27T17:19:28.899Z,71.04
2019-04-27T17:22:05.084Z,69.71
2019-04-27T17:24:43.809Z,68.90
2019-04-27T17:27:16.302Z,68.90
2019-04-27T17:29:48.000Z,72.30
2019-04-27T17:32:35.976Z,69.87
2019-04-27T17:35:10.957Z,69.87
2019-04-27T17:37:39.469Z,73.13
2019-04-27T17:40:09.603Z,73.13
2019-04-27T17:42:39.323Z,74.46
2019-04-27T17:45:11.143Z,74.46
2019-04-27T17:47:42.811Z,75.79
2019-04-27T17:50:18.414Z,75.37
2019-04-27T17:52:48.504Z,75.37
2019-04-27T17:55:24.467Z,74.83
2019-04-27T17:57:51.746Z,74.54
2019-04-27T18:00:28.222Z,74.54
2019-04-27T18:02:58.042Z,74.97
2019-04-27T18:05:28.504Z,74.97
2019-04-27T18:08:01.552Z,74.77
2019-04-27T18:10:40.744Z,72.74
2019-04-27T18:13:10.694Z,72.74
2019-04-27T18:15:41.034Z,72.89
2019-04-27T18:18:22.789Z,73.02
2019-04-27T18:21:11.687Z,71.57
2019-04-27T18:23:45.343Z,73.12
2019-04-27T18:26:31.190Z,73.12
2019-04-27T18:29:01.715Z,73.45
2019-04-27T18:31:35.094Z,74.03
2019-04-27T18:34:08.584Z,74.16
2019-04-27T18:36:37.855Z,74.17
2019-04-27T18:39:12.454Z,73.98
2019-04-27T18:41:49.255Z,72.55
2019-04-27T18:44:12.401Z,72.55
2019-04-27T18:46:42.095Z,73.17
2019-04-27T18:49:33.846Z,74.29
2019-04-27T18:52:21.261Z,74.29
2019-04-27T18:54:51.268Z,74.86
2019-04-27T18:57:20.932Z,74.38
2019-04-27T18:59:51.043Z,75.16
2019-04-27T19:02:21.261Z,75.07
2019-04-27T19:04:51.101Z,75.07
2019-04-27T19:07:20.520Z,74.56
2019-04-27T19:09:51.065Z,74.03
2019-04-27T19:12:20.877Z,74.67
2019-04-27T19:14:54.935Z,77.64
2019-04-27T19:17:24.691Z,76.88
2019-04-27T19:19:56.143Z,77.30
2019-04-27T19:22:25.882Z,77.30
2019-04-27T19:24:56.373Z,78.31
2019-04-27T19:27:59.689Z,79.51
2019-04-27T19:30:35.588Z,79.51
2019-04-27T19:33:05.033Z,78.68
2019-04-27T19:35:34.863Z,77.50
2019-04-27T19:38:04.682Z,77.50
2019-04-27T19:40:34.223Z,77.25
2019-04-27T19:43:03.713Z,77.36
2019-04-27T19:45:38.901Z,76.74
2019-04-27T19:48:11.074Z,75.98
2019-04-27T19:50:40.939Z,75.98
2019-04-27T19:53:10.374Z,74.90
2019-04-27T19:55:40.600Z,75.91
2019-04-27T19:58:10.629Z,76.87
2019-04-27T20:01:11.149Z,76.58
2019-04-27T20:03:38.962Z,76.98
2019-04-27T20:06:08.966Z,76.98
2019-04-27T20:08:40.865Z,76.81
2019-04-27T20:11:11.485Z,76.58
2019-04-27T20:13:41.739Z,76.12
2019-04-27T20:16:11.775Z,75.92
2019-04-27T20:18:43.821Z,75.92
2019-04-27T20:21:13.476Z,76.27
2019-04-27T20:23:43.260Z,76.03
2019-04-27T20:26:12.626Z,76.26
2019-04-27T20:28:42.258Z,76.81
2019-04-27T20:31:14.841Z,76.81
2019-04-27T20:33:54.026Z,76.80
2019-04-27T20:36:23.900Z,77.10
2019-04-27T20:38:53.511Z,77.10
2019-04-27T20:41:26.458Z,76.40
2019-04-27T20:43:58.143Z,76.21
2019-04-27T20:46:28.185Z,76.53
2019-04-27T20:49:01.116Z,76.48
2019-04-27T20:51:53.378Z,77.14
2019-04-27T20:54:23.877Z,77.14
2019-04-27T20:56:58.497Z,77.17
2019-04-27T20:59:31.325Z,77.46
2019-04-27T21:02:23.820Z,78.26
2019-04-27T21:04:56.698Z,77.58
2019-04-27T21:07:44.641Z,77.58
2019-04-27T21:10:15.214Z,77.80
2019-04-27T21:12:44.723Z,77.80
2019-04-27T21:15:21.428Z,77.62
2019-04-27T21:17:55.139Z,77.62
2019-04-27T21:20:26.523Z,78.34
2019-04-27T21:22:56.465Z,77.75
2019-04-27T21:25:26.892Z,78.41
2019-04-27T21:28:14.256Z,78.28
2019-04-27T21:30:32.402Z,78.28
2019-04-27T21:33:06.259Z,77.61
2019-04-27T21:35:36.385Z,77.54
2019-04-27T21:38:06.479Z,77.11
2019-04-27T21:40:37.731Z,77.84
2019-04-27T21:43:07.480Z,77.12
2019-04-27T21:45:39.077Z,77.12
2019-04-27T21:48:10.533Z,76.83
2019-04-27T21:50:43.651Z,76.98
2019-04-27T21:53:37.471Z,77.02
2019-04-27T21:56:11.178Z,77.01
2019-04-27T21:58:42.216Z,76.34
2019-04-27T22:01:34.641Z,76.80
2019-04-27T22:04:06.108Z,77.64
2019-04-27T22:06:42.186Z,77.64
2019-04-27T22:09:13.050Z,77.26
2019-04-27T22:11:42.688Z,77.18
2019-04-27T22:14:13.330Z,76.72
2019-04-27T22:16:44.466Z,76.64
2019-04-27T22:19:14.353Z,77.50
2019-04-27T22:21:44.194Z,77.61
2019-04-27T22:24:33.683Z,77.61
2019-04-27T22:27:03.646Z,77.24
2019-04-27T22:29:40.056Z,77.67
2019-04-27T22:32:07.422Z,77.09
2019-04-27T22:34:38.055Z,77.03
2019-04-27T22:37:07.703Z,77.88
2019-04-27T22:39:52.780Z,78.22
2019-04-27T22:42:53.664Z,77.84
2019-04-27T22:45:29.706Z,78.24
2019-04-27T22:48:01.334Z,78.24
2019-04-27T22:50:33.484Z,78.11
2019-04-27T22:53:03.577Z,78.04
2019-04-27T22:55:33.072Z,78.04
2019-04-27T22:58:09.195Z,77.60
2019-04-27T23:01:02.260Z,78.38
2019-04-27T23:03:34.242Z,78.38
2019-04-27T23:06:04.154Z,78.68
2019-04-27T23:08:36.675Z,78.87
2019-04-27T23:11:06.114Z,79.34
2019-04-27T23:13:36.026Z,78.86
2019-04-27T23:16:07.634Z,79.25
2019-04-27T23:18:37.371Z,79.32
2019-04-27T23:21:06.829Z,79.32
2019-04-27T23:23:38.392Z,79.45
2019-04-27T23:26:08.045Z,79.45
2019-04-27T23:28:41.311Z,79.53
2019-04-27T23:31:24.090Z,79.52
2019-04-27T23:33:56.144Z,79.62
2019-04-27T23:36:25.731Z,79.38
2019-04-27T23:38:55.186Z,79.15
2019-04-27T23:41:24.843Z,79.15
2019-04-27T23:43:54.546Z,79.25
2019-04-27T23:46:24.617Z,78.49
2019-04-27T23:48:56.306Z,77.74
2019-04-27T23:51:47.495Z,77.53
2019-04-27T23:54:17.038Z,77.21
2019-04-27T23:56:46.636Z,77.21
2019-04-27T23:59:24.682Z,77.55
